createdAt,value
2023-03-16T00:00:09.600Z,6
2023-03-16T00:02:37.706Z,5
2023-03-16T00:03:51.876Z,6
2023-03-16T00:05:06.009Z,5
2023-03-16T00:06:20.140Z,6
2023-03-16T00:08:48.400Z,6
2023-03-16T00:10:02.529Z,6
2023-03-16T00:11:16.706Z,6
2023-03-16T00:12:30.779Z,6
2023-03-16T00:13:44.938Z,6
2023-03-16T00:14:59.281Z,6
2023-03-16T00:16:13.290Z,5
2023-03-16T00:18:41.463Z,5
2023-03-16T00:19:55.737Z,6
2023-03-16T00:21:09.817Z,5
2023-03-16T00:22:23.951Z,5
2023-03-16T00:24:52.214Z,5
2023-03-16T00:26:06.376Z,6
2023-03-16T00:27:20.501Z,6
2023-03-16T00:29:48.678Z,6
2023-03-16T00:31:02.942Z,6
2023-03-16T00:32:16.924Z,6
2023-03-16T00:34:45.317Z,6
2023-03-16T00:35:59.372Z,6
2023-03-16T00:37:13.576Z,6
2023-03-16T00:39:41.683Z,6
2023-03-16T00:40:55.857Z,6
2023-03-16T00:42:10.037Z,6
2023-03-16T00:44:38.401Z,7
2023-03-16T00:45:52.451Z,6
2023-03-16T00:47:06.620Z,6
2023-03-16T00:48:20.632Z,6
2023-03-16T00:50:48.986Z,6
2023-03-16T00:52:03.032Z,6
2023-03-16T00:53:17.182Z,6
2023-03-16T00:54:31.286Z,6
2023-03-16T00:55:45.441Z,6
2023-03-16T00:56:59.686Z,6
2023-03-16T00:58:13.727Z,6
2023-03-16T01:00:41.986Z,6
2023-03-16T01:01:56.118Z,6
2023-03-16T01:03:10.305Z,6
2023-03-16T01:05:38.509Z,5
2023-03-16T01:06:52.704Z,6
2023-03-16T01:08:06.781Z,6
2023-03-16T01:09:20.901Z,5
2023-03-16T01:11:49.643Z,6
2023-03-16T01:13:03.370Z,6
2023-03-16T01:14:17.439Z,6
2023-03-16T01:16:45.939Z,6
2023-03-16T01:17:59.837Z,6
2023-03-16T01:19:14.095Z,6
2023-03-16T01:21:42.247Z,6
2023-03-16T01:22:56.358Z,5
2023-03-16T01:24:10.498Z,6
2023-03-16T01:26:38.777Z,6
2023-03-16T01:27:52.917Z,6
2023-03-16T01:29:07.060Z,6
2023-03-16T01:30:21.182Z,5
2023-03-16T01:32:49.522Z,6
2023-03-16T01:34:03.561Z,6
2023-03-16T01:35:17.739Z,6
2023-03-16T01:37:46.027Z,6
2023-03-16T01:39:00.122Z,6
2023-03-16T01:40:14.302Z,6
2023-03-16T01:42:42.543Z,6
2023-03-16T01:43:56.671Z,5
2023-03-16T01:45:10.760Z,6
2023-03-16T01:47:39.134Z,6
2023-03-16T01:48:53.272Z,6
2023-03-16T01:50:07.314Z,5
2023-03-16T01:51:21.437Z,6
2023-03-16T01:53:49.727Z,6
2023-03-16T01:55:03.819Z,6
2023-03-16T01:56:17.968Z,6
2023-03-16T01:58:46.233Z,5
2023-03-16T02:00:00.376Z,6
2023-03-16T02:01:14.548Z,6
2023-03-16T02:04:56.890Z,6
2023-03-16T02:06:11.025Z,6
2023-03-16T02:08:39.312Z,5
2023-03-16T02:09:53.490Z,5
2023-03-16T02:11:07.653Z,6
2023-03-16T02:12:21.762Z,6
2023-03-16T02:14:50.090Z,6
2023-03-16T02:16:04.327Z,5
2023-03-16T02:17:18.209Z,6
2023-03-16T02:19:46.497Z,5
2023-03-16T02:21:00.602Z,5
2023-03-16T02:22:14.776Z,5
2023-03-16T02:24:43.036Z,5
2023-03-16T02:25:57.167Z,5
2023-03-16T02:27:11.249Z,5
2023-03-16T02:29:39.609Z,5
2023-03-16T02:30:53.775Z,5
2023-03-16T02:32:07.811Z,5
2023-03-16T02:33:21.917Z,5
2023-03-16T02:35:50.361Z,5
2023-03-16T02:37:04.361Z,5
2023-03-16T02:38:18.481Z,6
2023-03-16T02:40:46.775Z,5
2023-03-16T02:42:00.968Z,5
2023-03-16T02:43:15.107Z,5
2023-03-16T02:45:43.326Z,5
2023-03-16T02:46:57.408Z,5
2023-03-16T02:48:11.536Z,5
2023-03-16T02:50:39.868Z,5
2023-03-16T02:51:54.359Z,5
2023-03-16T02:53:08.075Z,5
2023-03-16T02:54:22.355Z,5
2023-03-16T02:56:50.453Z,5
2023-03-16T02:58:04.643Z,5
2023-03-16T02:59:18.775Z,5
2023-03-16T03:01:47.018Z,5
2023-03-16T03:03:01.195Z,5
2023-03-16T03:04:15.316Z,5
2023-03-16T03:06:43.613Z,5
2023-03-16T03:07:57.698Z,5
2023-03-16T03:09:11.856Z,5
2023-03-16T03:10:26.234Z,5
2023-03-16T03:11:40.272Z,5
2023-03-16T03:12:54.206Z,5
2023-03-16T03:14:08.332Z,4
2023-03-16T03:15:22.497Z,5
2023-03-16T03:17:50.704Z,5
2023-03-16T03:19:04.876Z,5
2023-03-16T03:20:19.012Z,5
2023-03-16T03:22:47.262Z,5
2023-03-16T03:24:01.363Z,5
2023-03-16T03:25:15.565Z,5
2023-03-16T03:27:43.933Z,5
2023-03-16T03:28:57.967Z,5
2023-03-16T03:30:12.065Z,5
2023-03-16T03:32:40.480Z,5
2023-03-16T03:33:54.534Z,5
2023-03-16T03:35:08.565Z,5
2023-03-16T03:36:22.805Z,5
2023-03-16T03:38:50.983Z,5
2023-03-16T03:40:05.124Z,5
2023-03-16T03:41:19.277Z,5
2023-03-16T03:43:47.560Z,6
2023-03-16T03:45:01.724Z,5
2023-03-16T03:46:15.936Z,5
2023-03-16T03:48:44.107Z,5
2023-03-16T03:49:58.190Z,5
2023-03-16T03:51:12.312Z,5
2023-03-16T03:53:40.691Z,5
2023-03-16T03:54:54.729Z,5
2023-03-16T03:56:08.919Z,6
2023-03-16T03:57:23.063Z,6
2023-03-16T03:59:51.263Z,5
2023-03-16T04:01:05.484Z,5
2023-03-16T04:02:19.707Z,5
2023-03-16T04:04:47.775Z,5
2023-03-16T04:06:01.929Z,5
2023-03-16T04:07:16.058Z,5
2023-03-16T04:09:44.435Z,6
2023-03-16T04:10:58.453Z,6
2023-03-16T04:12:12.625Z,5
2023-03-16T04:14:41.037Z,6
2023-03-16T04:15:55.053Z,6
2023-03-16T04:17:09.138Z,6
2023-03-16T04:18:23.313Z,6
2023-03-16T04:20:51.490Z,5
2023-03-16T04:22:05.717Z,6
2023-03-16T04:23:19.810Z,6
2023-03-16T04:25:48.048Z,6
2023-03-16T04:27:02.166Z,5
2023-03-16T04:28:16.415Z,5
2023-03-16T04:30:44.743Z,6
2023-03-16T04:31:58.886Z,5
2023-03-16T04:33:12.859Z,5
2023-03-16T04:35:41.110Z,6
2023-03-16T04:36:55.224Z,6
2023-03-16T04:38:09.503Z,6
2023-03-16T04:40:37.644Z,5
2023-03-16T04:41:51.794Z,6
2023-03-16T04:43:05.975Z,6
2023-03-16T04:44:20.075Z,6
2023-03-16T04:46:48.297Z,6
2023-03-16T04:48:02.489Z,6
2023-03-16T04:49:16.632Z,6
2023-03-16T04:51:44.922Z,6
2023-03-16T04:52:59.067Z,7
2023-03-16T04:54:13.101Z,6
2023-03-16T04:56:41.416Z,6
2023-03-16T04:57:55.624Z,6
2023-03-16T04:59:09.746Z,7
2023-03-16T05:00:23.891Z,6
2023-03-16T05:02:52.060Z,6
2023-03-16T05:04:06.222Z,7
2023-03-16T05:05:20.304Z,7
2023-03-16T05:07:48.545Z,6
2023-03-16T05:09:02.743Z,7
2023-03-16T05:10:16.830Z,6
2023-03-16T05:12:45.153Z,7
2023-03-16T05:13:59.304Z,6
2023-03-16T05:15:13.540Z,7
2023-03-16T05:17:41.606Z,6
2023-03-16T05:18:55.764Z,6
2023-03-16T05:20:10.006Z,7
2023-03-16T05:22:38.161Z,7
2023-03-16T05:23:52.309Z,6
2023-03-16T05:25:06.531Z,6
2023-03-16T05:26:20.524Z,6
2023-03-16T05:28:48.864Z,6
2023-03-16T05:30:02.950Z,7
2023-03-16T05:31:17.173Z,7
2023-03-16T05:33:45.416Z,7
2023-03-16T05:34:59.553Z,7
2023-03-16T05:36:13.765Z,6
2023-03-16T05:38:42.016Z,7
2023-03-16T05:39:56.024Z,6
2023-03-16T05:41:10.147Z,7
2023-03-16T05:42:24.379Z,6
2023-03-16T05:44:52.576Z,6
2023-03-16T05:46:06.829Z,7
2023-03-16T05:47:20.807Z,7
2023-03-16T05:49:49.211Z,7
2023-03-16T05:51:03.331Z,7
2023-03-16T05:52:17.399Z,7
2023-03-16T05:54:45.667Z,7
2023-03-16T05:55:59.820Z,7
2023-03-16T05:57:13.890Z,7
2023-03-16T05:59:42.172Z,7
2023-03-16T06:00:56.299Z,8
2023-03-16T06:02:10.393Z,7
2023-03-16T06:04:38.711Z,7
2023-03-16T06:05:52.816Z,6
2023-03-16T06:07:06.984Z,7
2023-03-16T06:08:21.095Z,7
2023-03-16T06:10:49.444Z,7
2023-03-16T06:12:03.794Z,7
2023-03-16T06:13:17.618Z,7
2023-03-16T06:14:31.779Z,7
2023-03-16T06:15:45.989Z,7
2023-03-16T06:17:00.028Z,7
2023-03-16T06:18:14.163Z,7
2023-03-16T06:20:42.444Z,7
2023-03-16T06:21:56.610Z,7
2023-03-16T06:23:10.677Z,7
2023-03-16T06:25:40.748Z,7
2023-03-16T06:26:53.135Z,8
2023-03-16T06:28:07.214Z,7
2023-03-16T06:29:21.332Z,8
2023-03-16T06:31:49.773Z,7
2023-03-16T06:33:03.868Z,7
2023-03-16T06:34:17.876Z,7
2023-03-16T06:36:46.254Z,8
2023-03-16T06:38:00.360Z,8
2023-03-16T06:39:14.515Z,7
2023-03-16T06:41:42.676Z,8
2023-03-16T06:42:56.828Z,8
2023-03-16T06:44:11.035Z,8
2023-03-16T06:46:39.228Z,7
2023-03-16T06:47:53.395Z,7
2023-03-16T06:49:07.481Z,8
2023-03-16T06:50:21.659Z,8
2023-03-16T06:52:49.874Z,7
2023-03-16T06:54:04.102Z,7
2023-03-16T06:55:18.173Z,7
2023-03-16T06:57:46.517Z,8
2023-03-16T06:59:00.602Z,8
2023-03-16T07:00:14.797Z,8
2023-03-16T07:02:42.945Z,8
2023-03-16T07:03:57.099Z,8
2023-03-16T07:05:11.231Z,7
2023-03-16T07:07:39.494Z,8
2023-03-16T07:08:53.611Z,8
2023-03-16T07:10:07.750Z,7
2023-03-16T07:11:21.894Z,8
2023-03-16T07:13:50.238Z,8
2023-03-16T07:15:04.281Z,7
2023-03-16T07:16:18.461Z,8
2023-03-16T07:18:46.672Z,8
2023-03-16T07:20:00.781Z,7
2023-03-16T07:21:14.927Z,8
2023-03-16T07:23:43.200Z,8
2023-03-16T07:24:57.542Z,8
2023-03-16T07:26:11.432Z,8
2023-03-16T07:28:39.874Z,7
2023-03-16T07:29:53.886Z,8
2023-03-16T07:31:07.980Z,8
2023-03-16T07:32:22.212Z,8
2023-03-16T07:34:50.393Z,7
2023-03-16T07:36:04.605Z,8
2023-03-16T07:37:25.186Z,9
2023-03-16T07:39:46.944Z,8
2023-03-16T07:41:01.108Z,8
2023-03-16T07:42:15.218Z,8
2023-03-16T07:44:43.508Z,8
2023-03-16T07:45:57.700Z,8
2023-03-16T07:47:11.726Z,8
2023-03-16T07:49:40.075Z,8
2023-03-16T07:50:54.160Z,8
2023-03-16T07:52:08.566Z,9
2023-03-16T07:53:22.389Z,9
2023-03-16T07:55:50.672Z,8
2023-03-16T07:57:04.804Z,8
2023-03-16T07:58:19.036Z,8
2023-03-16T08:00:47.223Z,8
2023-03-16T08:02:01.295Z,8
2023-03-16T08:03:15.581Z,9
2023-03-16T08:05:43.765Z,9
2023-03-16T08:06:57.851Z,9
2023-03-16T08:08:11.968Z,9
2023-03-16T08:10:40.244Z,8
2023-03-16T08:11:54.441Z,9
2023-03-16T08:13:08.543Z,9
2023-03-16T08:14:22.718Z,9
2023-03-16T08:16:50.941Z,9
2023-03-16T08:18:05.135Z,9
2023-03-16T08:19:19.197Z,9
2023-03-16T08:22:00.692Z,10
2023-03-16T08:23:01.558Z,9
2023-03-16T08:24:15.814Z,8
2023-03-16T08:26:44.000Z,9
2023-03-16T08:27:58.112Z,11
2023-03-16T08:29:12.360Z,9
2023-03-16T08:31:40.602Z,10
2023-03-16T08:32:54.709Z,9
2023-03-16T08:34:08.766Z,10
2023-03-16T08:35:22.972Z,10
2023-03-16T08:37:51.174Z,10
2023-03-16T08:39:07.378Z,10
2023-03-16T08:40:19.498Z,9
2023-03-16T08:42:47.708Z,14
2023-03-16T08:44:01.840Z,10
2023-03-16T08:45:16.071Z,10
2023-03-16T08:47:44.383Z,10
2023-03-16T08:48:58.440Z,10
2023-03-16T08:50:12.514Z,10
2023-03-16T08:52:40.907Z,9
2023-03-16T08:53:54.907Z,10
2023-03-16T08:55:09.071Z,11
2023-03-16T08:56:23.225Z,10
2023-03-16T08:58:51.648Z,9
2023-03-16T09:00:05.583Z,10
2023-03-16T09:01:19.827Z,9
2023-03-16T09:03:48.096Z,9
2023-03-16T09:05:02.275Z,9
2023-03-16T09:06:16.271Z,9
2023-03-16T09:08:44.514Z,9
2023-03-16T09:09:58.657Z,9
2023-03-16T09:11:12.792Z,9
2023-03-16T09:13:41.061Z,8
2023-03-16T09:14:55.277Z,9
2023-03-16T09:16:09.367Z,8
2023-03-16T09:17:23.452Z,9
2023-03-16T09:19:53.824Z,9
2023-03-16T09:21:05.882Z,8
2023-03-16T09:22:20.060Z,8
2023-03-16T09:24:48.222Z,8
2023-03-16T09:26:02.370Z,8
2023-03-16T09:27:16.669Z,9
2023-03-16T09:29:44.819Z,9
2023-03-16T09:30:58.958Z,8
2023-03-16T09:32:13.328Z,7
2023-03-16T09:34:41.390Z,8
2023-03-16T09:35:55.571Z,8
2023-03-16T09:37:09.677Z,8
2023-03-16T09:39:37.817Z,7
2023-03-16T09:40:51.954Z,8
2023-03-16T09:42:06.089Z,7
2023-03-16T09:43:20.202Z,8
2023-03-16T09:45:48.506Z,8
2023-03-16T09:47:02.642Z,7
2023-03-16T09:48:16.782Z,8
2023-03-16T09:50:49.328Z,7
2023-03-16T09:52:00.571Z,8
2023-03-16T09:53:13.312Z,8
2023-03-16T09:55:41.543Z,8
2023-03-16T09:56:55.723Z,8
2023-03-16T09:58:09.897Z,7
2023-03-16T10:00:38.080Z,7
2023-03-16T10:01:52.256Z,7
2023-03-16T10:03:06.354Z,7
2023-03-16T10:04:20.585Z,7
2023-03-16T10:06:48.737Z,8
2023-03-16T10:08:02.895Z,7
2023-03-16T10:09:17.056Z,7
2023-03-16T10:11:45.280Z,7
2023-03-16T10:13:00.136Z,7
2023-03-16T10:14:13.546Z,7
2023-03-16T10:16:41.882Z,6
2023-03-16T10:17:56.001Z,7
2023-03-16T10:19:10.132Z,7
2023-03-16T10:20:24.204Z,6
2023-03-16T10:22:52.594Z,6
2023-03-16T10:24:06.613Z,6
2023-03-16T10:25:20.879Z,6
2023-03-16T10:27:49.164Z,6
2023-03-16T10:29:03.139Z,5
2023-03-16T10:30:17.268Z,6
2023-03-16T10:32:45.555Z,6
2023-03-16T10:33:59.802Z,6
2023-03-16T10:35:13.828Z,6
2023-03-16T10:37:42.058Z,5
2023-03-16T10:38:56.228Z,5
2023-03-16T10:40:10.326Z,5
2023-03-16T10:42:38.636Z,5
2023-03-16T10:43:52.811Z,5
2023-03-16T10:45:06.887Z,4
2023-03-16T10:46:21.110Z,5
2023-03-16T10:48:49.356Z,4
2023-03-16T10:50:03.438Z,4
2023-03-16T10:51:17.536Z,5
2023-03-16T10:52:31.696Z,5
2023-03-16T10:53:45.834Z,5
2023-03-16T10:55:00.115Z,5
2023-03-16T10:56:14.074Z,5
2023-03-16T10:58:42.345Z,5
2023-03-16T10:59:56.493Z,5
2023-03-16T11:01:10.690Z,5
2023-03-16T11:03:38.939Z,5
2023-03-16T11:04:53.225Z,5
2023-03-16T11:06:07.144Z,5
2023-03-16T11:07:21.265Z,4
2023-03-16T11:09:49.564Z,4
2023-03-16T11:11:03.726Z,5
2023-03-16T11:12:17.965Z,5
2023-03-16T11:14:46.148Z,4
2023-03-16T11:16:00.198Z,4
2023-03-16T11:17:14.369Z,5
2023-03-16T11:19:42.622Z,4
2023-03-16T11:20:56.751Z,4
2023-03-16T11:22:10.859Z,4
2023-03-16T11:24:39.257Z,4
2023-03-16T11:25:53.297Z,5
2023-03-16T11:27:07.417Z,4
2023-03-16T11:28:21.552Z,4
2023-03-16T11:30:49.879Z,5
2023-03-16T11:32:03.972Z,4
2023-03-16T11:33:18.084Z,5
2023-03-16T11:35:58.069Z,5
2023-03-16T11:37:00.507Z,4
2023-03-16T11:38:14.650Z,4
2023-03-16T11:40:42.894Z,4
2023-03-16T11:41:57.012Z,4
2023-03-16T11:43:11.143Z,4
2023-03-16T11:45:39.529Z,4
2023-03-16T11:46:53.641Z,4
2023-03-16T11:48:07.681Z,4
2023-03-16T11:49:21.898Z,4
2023-03-16T11:51:50.177Z,4
2023-03-16T11:53:04.311Z,4
2023-03-16T11:54:18.345Z,3
2023-03-16T11:56:46.616Z,4
2023-03-16T11:58:00.748Z,4
2023-03-16T11:59:14.873Z,3
2023-03-16T12:01:50.634Z,4
2023-03-16T12:02:57.451Z,3
2023-03-16T12:04:11.457Z,4
2023-03-16T12:06:39.707Z,4
2023-03-16T12:07:53.890Z,4
2023-03-16T12:09:07.947Z,4
2023-03-16T12:10:22.102Z,5
2023-03-16T12:12:50.391Z,4
2023-03-16T12:14:04.466Z,3
2023-03-16T12:15:18.727Z,3
2023-03-16T12:17:46.907Z,3
2023-03-16T12:19:01.091Z,3
2023-03-16T12:20:15.280Z,2
2023-03-16T12:22:43.409Z,3
2023-03-16T12:25:11.646Z,4
2023-03-16T12:27:39.972Z,3
2023-03-16T12:28:54.107Z,3
2023-03-16T12:30:08.194Z,3
2023-03-16T12:31:22.349Z,3
2023-03-16T12:33:50.597Z,2
2023-03-16T12:35:04.810Z,2
2023-03-16T12:36:18.888Z,2
2023-03-16T12:38:47.154Z,3
2023-03-16T12:40:01.265Z,3
2023-03-16T12:41:17.677Z,3
2023-03-16T12:43:43.823Z,3
2023-03-16T12:44:57.795Z,3
2023-03-16T12:46:12.484Z,3
2023-03-16T12:48:40.200Z,2
2023-03-16T12:49:54.370Z,2
2023-03-16T12:51:08.507Z,2
2023-03-16T12:52:22.655Z,2
2023-03-16T12:54:50.868Z,2
2023-03-16T12:56:05.050Z,2
2023-03-16T12:57:19.187Z,2
2023-03-16T12:59:47.390Z,2
2023-03-16T13:01:01.627Z,2
2023-03-16T13:02:15.720Z,2
2023-03-16T13:04:44.107Z,2
2023-03-16T13:05:58.152Z,2
2023-03-16T13:07:12.280Z,2
2023-03-16T13:09:40.530Z,2
2023-03-16T13:10:54.687Z,2
2023-03-16T13:12:08.752Z,2
2023-03-16T13:13:22.984Z,2
2023-03-16T13:15:51.136Z,2
2023-03-16T13:17:05.504Z,2
2023-03-16T13:18:19.405Z,2
2023-03-16T13:20:47.699Z,2
2023-03-16T13:22:01.847Z,2
2023-03-16T13:23:15.973Z,2
2023-03-16T13:25:44.217Z,2
2023-03-16T13:26:58.331Z,2
2023-03-16T13:28:12.503Z,2
2023-03-16T13:29:26.630Z,2
2023-03-16T13:30:40.735Z,2
2023-03-16T13:31:55.028Z,2
2023-03-16T13:33:09.000Z,2
2023-03-16T13:34:23.121Z,2
2023-03-16T13:36:51.384Z,2
2023-03-16T13:38:05.686Z,2
2023-03-16T13:39:19.801Z,2
2023-03-16T13:41:47.960Z,2
2023-03-16T13:43:02.084Z,2
2023-03-16T13:44:16.232Z,2
2023-03-16T13:46:44.485Z,3
2023-03-16T13:47:58.630Z,2
2023-03-16T13:49:12.763Z,2
2023-03-16T13:51:41.156Z,6
2023-03-16T13:52:55.142Z,2
2023-03-16T13:54:09.293Z,2
2023-03-16T13:55:23.402Z,2
2023-03-16T13:57:51.753Z,2
2023-03-16T13:59:05.803Z,2
2023-03-16T14:00:19.965Z,2
2023-03-16T14:02:48.244Z,2
2023-03-16T14:04:02.426Z,2
2023-03-16T14:05:16.534Z,2
2023-03-16T14:07:44.835Z,2
2023-03-16T14:08:58.984Z,2
2023-03-16T14:10:13.037Z,2
2023-03-16T14:12:41.301Z,2
2023-03-16T14:13:55.403Z,2
2023-03-16T14:15:09.560Z,2
2023-03-16T14:17:37.809Z,2
2023-03-16T14:18:51.981Z,2
2023-03-16T14:20:06.125Z,2
2023-03-16T14:21:20.203Z,2
2023-03-16T14:23:48.539Z,2
2023-03-16T14:25:02.663Z,2
2023-03-16T14:26:16.761Z,2
2023-03-16T14:28:45.093Z,2
2023-03-16T14:29:59.242Z,2
2023-03-16T14:31:13.600Z,2
2023-03-16T14:33:41.645Z,2
2023-03-16T14:34:55.711Z,2
2023-03-16T14:36:09.902Z,2
2023-03-16T14:37:23.964Z,2
2023-03-16T14:39:52.238Z,2
2023-03-16T14:41:06.387Z,2
2023-03-16T14:42:20.489Z,2
2023-03-16T14:44:48.804Z,2
2023-03-16T14:46:02.917Z,2
2023-03-16T14:47:17.010Z,2
2023-03-16T14:49:45.327Z,2
2023-03-16T14:50:59.497Z,2
2023-03-16T14:52:13.540Z,2
2023-03-16T14:54:41.821Z,2
2023-03-16T14:55:56.020Z,2
2023-03-16T14:57:10.063Z,2
2023-03-16T14:59:38.345Z,2
2023-03-16T15:00:53.573Z,2
2023-03-16T15:02:06.676Z,2
2023-03-16T15:03:20.723Z,2
2023-03-16T15:05:49.007Z,2
2023-03-16T15:07:03.150Z,2
2023-03-16T15:08:17.447Z,2
2023-03-16T15:10:45.552Z,2
2023-03-16T15:11:59.660Z,2
2023-03-16T15:13:13.819Z,2
2023-03-16T15:15:42.109Z,2
2023-03-16T15:16:56.204Z,2
2023-03-16T15:18:10.307Z,2
2023-03-16T15:20:38.595Z,2
2023-03-16T15:21:52.746Z,2
2023-03-16T15:23:06.922Z,2
2023-03-16T15:24:20.974Z,2
2023-03-16T15:26:49.303Z,2
2023-03-16T15:28:03.423Z,2
2023-03-16T15:29:17.536Z,2
2023-03-16T15:30:31.985Z,2
2023-03-16T15:31:45.876Z,2
2023-03-16T15:33:00.006Z,2
2023-03-16T15:34:14.210Z,2
2023-03-16T15:36:42.338Z,2
2023-03-16T15:37:56.472Z,2
2023-03-16T15:39:10.600Z,2
2023-03-16T15:41:47.518Z,2
2023-03-16T15:42:52.994Z,2
2023-03-16T15:44:07.120Z,2
2023-03-16T15:45:21.574Z,2
2023-03-16T15:47:49.531Z,2
2023-03-16T15:49:03.713Z,2
2023-03-16T15:50:17.930Z,2
2023-03-16T15:52:46.092Z,2
2023-03-16T15:54:00.199Z,2
2023-03-16T15:55:14.373Z,2
2023-03-16T15:57:42.586Z,2
2023-03-16T15:58:56.729Z,3
2023-03-16T16:00:10.834Z,3
2023-03-16T16:01:25.092Z,2
2023-03-16T16:02:39.144Z,3
2023-03-16T16:03:53.420Z,3
2023-03-16T16:05:07.380Z,2
2023-03-16T16:06:21.511Z,2
2023-03-16T16:08:49.865Z,3
2023-03-16T16:10:03.942Z,3
2023-03-16T16:11:18.150Z,2
2023-03-16T16:13:46.348Z,3
2023-03-16T16:15:00.427Z,3
2023-03-16T16:16:14.659Z,3
2023-03-16T16:18:42.903Z,2
2023-03-16T16:20:12.833Z,4
2023-03-16T16:21:11.322Z,3
2023-03-16T16:23:39.385Z,3
2023-03-16T16:24:53.513Z,4
2023-03-16T16:26:07.657Z,4
2023-03-16T16:27:21.797Z,3
2023-03-16T16:29:50.059Z,3
2023-03-16T16:31:04.210Z,3
2023-03-16T16:32:18.314Z,3
2023-03-16T16:35:01.787Z,3
2023-03-16T16:36:00.778Z,3
2023-03-16T16:39:43.109Z,3
2023-03-16T16:40:57.259Z,3
2023-03-16T16:42:11.372Z,3
2023-03-16T16:44:39.659Z,3
2023-03-16T16:45:53.926Z,3
2023-03-16T16:47:08.042Z,3
2023-03-16T16:48:22.070Z,3
2023-03-16T16:50:50.394Z,3
2023-03-16T16:52:04.796Z,7
2023-03-16T16:53:18.621Z,3
2023-03-16T16:55:46.828Z,2
2023-03-16T16:57:00.968Z,2
2023-03-16T16:58:23.912Z,2
2023-03-16T17:00:43.384Z,2
2023-03-16T17:01:57.498Z,3
2023-03-16T17:03:11.680Z,2
2023-03-16T17:05:39.999Z,3
2023-03-16T17:06:54.159Z,3
2023-03-16T17:08:08.173Z,2
2023-03-16T17:09:22.323Z,3
2023-03-16T17:11:50.572Z,2
2023-03-16T17:13:04.726Z,3
2023-03-16T17:14:18.874Z,3
2023-03-16T17:16:47.223Z,3
2023-03-16T17:18:01.220Z,3
2023-03-16T17:19:15.405Z,3
2023-03-16T17:21:43.725Z,2
2023-03-16T17:22:58.230Z,2
2023-03-16T17:24:12.120Z,3
2023-03-16T17:26:40.389Z,2
2023-03-16T17:27:54.491Z,3
2023-03-16T17:29:08.536Z,3
2023-03-16T17:30:22.738Z,2
2023-03-16T17:32:50.994Z,2
2023-03-16T17:34:05.067Z,3
2023-03-16T17:35:19.769Z,2
2023-03-16T17:37:47.504Z,3
2023-03-16T17:39:01.824Z,2
2023-03-16T17:40:16.424Z,2
2023-03-16T17:42:43.970Z,2
2023-03-16T17:43:58.114Z,2
2023-03-16T17:45:12.223Z,3
2023-03-16T17:47:40.413Z,2
2023-03-16T17:48:54.581Z,2
2023-03-16T17:50:08.733Z,2
2023-03-16T17:51:22.828Z,2
2023-03-16T17:53:51.091Z,3
2023-03-16T17:55:05.331Z,2
2023-03-16T17:56:19.450Z,3
2023-03-16T17:58:47.677Z,3
2023-03-16T18:00:01.839Z,3
2023-03-16T18:01:16.056Z,2
2023-03-16T18:03:44.266Z,2
2023-03-16T18:04:58.305Z,3
2023-03-16T18:06:12.437Z,3
2023-03-16T18:08:40.717Z,2
2023-03-16T18:09:54.855Z,3
2023-03-16T18:11:09.021Z,3
2023-03-16T18:12:23.154Z,3
2023-03-16T18:14:51.353Z,2
2023-03-16T18:16:05.665Z,3
2023-03-16T18:17:19.727Z,3
2023-03-16T18:19:47.900Z,3
2023-03-16T18:21:02.039Z,3
2023-03-16T18:22:16.205Z,4
2023-03-16T18:24:44.416Z,4
2023-03-16T18:25:58.644Z,3
2023-03-16T18:27:12.804Z,4
2023-03-16T18:29:40.935Z,9
2023-03-16T18:30:55.143Z,5
2023-03-16T18:32:09.388Z,4
2023-03-16T18:33:23.384Z,7
2023-03-16T18:35:51.655Z,4
2023-03-16T18:37:05.792Z,4
2023-03-16T18:38:19.923Z,3
2023-03-16T18:40:48.154Z,3
2023-03-16T18:42:02.337Z,3
2023-03-16T18:43:16.493Z,3
2023-03-16T18:45:44.741Z,3
2023-03-16T18:46:59.016Z,3
2023-03-16T18:48:13.043Z,3
2023-03-16T18:50:41.283Z,3
2023-03-16T18:51:55.466Z,4
2023-03-16T18:53:09.506Z,4
2023-03-16T18:54:23.691Z,4
2023-03-16T18:56:51.889Z,3
2023-03-16T18:58:06.140Z,3
2023-03-16T18:59:20.209Z,4
2023-03-16T19:01:48.578Z,3
2023-03-16T19:03:02.596Z,3
2023-03-16T19:04:16.691Z,3
2023-03-16T19:06:44.955Z,4
2023-03-16T19:07:59.091Z,3
2023-03-16T19:09:13.415Z,4
2023-03-16T19:11:41.559Z,4
2023-03-16T19:12:55.643Z,4
2023-03-16T19:14:09.744Z,4
2023-03-16T19:15:23.927Z,4
2023-03-16T19:17:52.247Z,4
2023-03-16T19:19:06.276Z,4
2023-03-16T19:20:20.397Z,4
2023-03-16T19:22:48.785Z,4
2023-03-16T19:24:02.850Z,4
2023-03-16T19:25:16.975Z,4
2023-03-16T19:27:45.316Z,4
2023-03-16T19:28:59.356Z,4
2023-03-16T19:30:13.506Z,5
2023-03-16T19:32:41.932Z,4
2023-03-16T19:33:55.899Z,4
2023-03-16T19:35:10.053Z,4
2023-03-16T19:36:24.201Z,4
2023-03-16T19:38:52.491Z,4
2023-03-16T19:40:06.580Z,4
2023-03-16T19:41:20.673Z,5
2023-03-16T19:43:49.023Z,4
2023-03-16T19:45:03.161Z,4
2023-03-16T19:46:17.273Z,4
2023-03-16T19:48:45.573Z,4
2023-03-16T19:49:59.697Z,4
2023-03-16T19:51:13.862Z,4
2023-03-16T19:53:42.008Z,4
2023-03-16T19:54:56.176Z,4
2023-03-16T19:56:10.249Z,4
2023-03-16T19:58:38.592Z,4
2023-03-16T19:59:52.671Z,4
2023-03-16T20:01:06.878Z,4
2023-03-16T20:02:21.155Z,4
2023-03-16T20:04:49.258Z,4
2023-03-16T20:06:03.398Z,4
2023-03-16T20:07:17.501Z,5
2023-03-16T20:09:45.851Z,8
2023-03-16T20:10:59.935Z,4
2023-03-16T20:12:14.071Z,4
2023-03-16T20:14:42.252Z,4
2023-03-16T20:15:56.399Z,3
2023-03-16T20:17:10.612Z,4
2023-03-16T20:19:38.815Z,6
2023-03-16T20:20:53.094Z,4
2023-03-16T20:22:07.061Z,5
2023-03-16T20:23:21.187Z,4
2023-03-16T20:25:49.504Z,4
2023-03-16T20:27:03.679Z,4
2023-03-16T20:28:17.796Z,4
2023-03-16T20:30:46.177Z,4
2023-03-16T20:32:00.212Z,3
2023-03-16T20:33:14.273Z,4
2023-03-16T20:35:42.588Z,4
2023-03-16T20:36:56.643Z,4
2023-03-16T20:38:10.773Z,4
2023-03-16T20:39:24.925Z,4
2023-03-16T20:40:39.141Z,4
2023-03-16T20:41:53.296Z,3
2023-03-16T20:43:08.286Z,4
2023-03-16T20:44:21.432Z,4
2023-03-16T20:46:49.822Z,3
2023-03-16T20:48:03.915Z,3
2023-03-16T20:49:17.999Z,4
2023-03-16T20:51:46.281Z,4
2023-03-16T20:53:00.394Z,3
2023-03-16T20:54:14.534Z,4
2023-03-16T20:56:42.781Z,5
2023-03-16T20:57:56.920Z,4
2023-03-16T20:59:11.028Z,5
2023-03-16T21:01:39.420Z,4
2023-03-16T21:02:53.524Z,4
2023-03-16T21:04:07.602Z,4
2023-03-16T21:05:21.701Z,3
2023-03-16T21:07:50.094Z,3
2023-03-16T21:09:04.209Z,3
2023-03-16T21:10:18.252Z,3
2023-03-16T21:12:46.720Z,3
2023-03-16T21:14:00.646Z,4
2023-03-16T21:15:14.893Z,3
2023-03-16T21:17:43.049Z,3
2023-03-16T21:18:57.203Z,3
2023-03-16T21:20:11.299Z,3
2023-03-16T21:22:39.591Z,3
2023-03-16T21:23:53.770Z,3
2023-03-16T21:25:07.935Z,3
2023-03-16T21:26:21.995Z,3
2023-03-16T21:28:50.275Z,3
2023-03-16T21:30:04.467Z,3
2023-03-16T21:31:19.759Z,3
2023-03-16T21:33:46.780Z,3
2023-03-16T21:35:00.895Z,3
2023-03-16T21:36:15.133Z,3
2023-03-16T21:38:43.324Z,3
2023-03-16T21:40:00.103Z,3
2023-03-16T21:41:11.634Z,3
2023-03-16T21:43:39.841Z,3
2023-03-16T21:44:54.128Z,3
2023-03-16T21:46:08.189Z,3
2023-03-16T21:47:22.266Z,3
2023-03-16T21:49:50.540Z,3
2023-03-16T21:51:04.649Z,3
2023-03-16T21:52:18.812Z,3
2023-03-16T21:54:47.083Z,3
2023-03-16T21:56:01.241Z,3
2023-03-16T21:57:15.387Z,3
2023-03-16T21:59:43.612Z,4
2023-03-16T22:00:57.705Z,4
2023-03-16T22:02:11.920Z,3
2023-03-16T22:03:26.085Z,3
2023-03-16T22:04:40.133Z,3
2023-03-16T22:05:54.249Z,3
2023-03-16T22:07:08.477Z,3
2023-03-16T22:08:22.587Z,3
2023-03-16T22:10:50.768Z,3
2023-03-16T22:12:05.048Z,3
2023-03-16T22:13:19.137Z,3
2023-03-16T22:15:47.381Z,3
2023-03-16T22:17:01.479Z,3
2023-03-16T22:18:15.608Z,3
2023-03-16T22:20:43.848Z,4
2023-03-16T22:21:57.991Z,3
2023-03-16T22:23:12.107Z,7
2023-03-16T22:25:40.373Z,5
2023-03-16T22:26:54.788Z,4
2023-03-16T22:28:08.688Z,4
2023-03-16T22:29:22.898Z,4
2023-03-16T22:31:51.120Z,5
2023-03-16T22:33:05.298Z,4
2023-03-16T22:34:19.382Z,3
2023-03-16T22:36:47.615Z,5
2023-03-16T22:38:01.811Z,4
2023-03-16T22:39:15.947Z,4
2023-03-16T22:41:44.111Z,3
2023-03-16T22:42:58.246Z,3
2023-03-16T22:44:12.411Z,3
2023-03-16T22:46:40.713Z,4
2023-03-16T22:47:54.816Z,3
2023-03-16T22:49:09.056Z,4
2023-03-16T22:50:23.108Z,3
2023-03-16T22:52:51.400Z,3
2023-03-16T22:54:05.564Z,3
2023-03-16T22:55:19.615Z,3
2023-03-16T22:57:47.877Z,3
2023-03-16T22:59:02.045Z,3
2023-03-16T23:00:16.166Z,3
2023-03-16T23:02:44.455Z,3
2023-03-16T23:03:58.554Z,3
2023-03-16T23:05:12.782Z,3
2023-03-16T23:07:40.905Z,3
2023-03-16T23:08:55.067Z,4
2023-03-16T23:10:09.215Z,3
2023-03-16T23:11:23.409Z,4
2023-03-16T23:13:51.575Z,3
2023-03-16T23:15:05.754Z,3
2023-03-16T23:16:19.926Z,3
2023-03-16T23:18:48.133Z,4
2023-03-16T23:20:02.269Z,4
2023-03-16T23:21:16.379Z,3
2023-03-16T23:23:53.890Z,3
2023-03-16T23:24:58.858Z,3
2023-03-16T23:26:12.920Z,3
2023-03-16T23:28:41.223Z,3
2023-03-16T23:29:55.302Z,3
2023-03-16T23:31:09.603Z,3
2023-03-16T23:32:23.684Z,3
2023-03-16T23:34:51.859Z,3
2023-03-16T23:36:06.095Z,3
2023-03-16T23:37:20.216Z,4
2023-03-16T23:39:48.467Z,3
2023-03-16T23:41:02.570Z,4